createdAt,value
2023-01-18T00:00:10.550Z,15.43
2023-01-18T00:02:39.742Z,16.35
2023-01-18T00:05:07.513Z,15.52
2023-01-18T00:07:34.108Z,13.48
2023-01-18T00:10:00.670Z,21.35
2023-01-18T00:12:27.328Z,11.05
2023-01-18T00:14:53.987Z,15.55
2023-01-18T00:17:20.599Z,17.90
2023-01-18T00:19:48.020Z,13.52
2023-01-18T00:22:14.719Z,20.85
2023-01-18T00:24:41.271Z,14.60
2023-01-18T00:27:10.707Z,13.68
2023-01-18T00:29:37.443Z,15.25
2023-01-18T00:32:04.538Z,14.50
2023-01-18T00:34:31.709Z,15.13
2023-01-18T00:36:58.316Z,15.82
2023-01-18T00:39:24.934Z,10.68
2023-01-18T00:42:11.710Z,11.63
2023-01-18T00:47:04.800Z,10.15
2023-01-18T00:49:32.762Z,11.38
2023-01-18T00:51:59.372Z,11.65
2023-01-18T00:54:25.959Z,12.15
2023-01-18T00:56:52.757Z,13.88
2023-01-18T00:59:19.408Z,13.02
2023-01-18T01:01:46.136Z,10.82
2023-01-18T01:04:31.305Z,8.88
2023-01-18T01:06:58.777Z,9.95
2023-01-18T01:09:27.475Z,14.63
2023-01-18T01:12:13.681Z,11.40
2023-01-18T01:15:03.944Z,11.15
2023-01-18T01:17:51.329Z,11.55
2023-01-18T01:20:37.077Z,11.82
2023-01-18T01:23:37.713Z,13.32
2023-01-18T01:26:05.926Z,11.77
2023-01-18T01:28:32.529Z,13.57
2023-01-18T01:31:00.866Z,9.70
2023-01-18T01:33:31.123Z,11.80
2023-01-18T01:36:02.452Z,9.88
2023-01-18T01:38:29.041Z,14.18
2023-01-18T01:41:00.483Z,11.15
2023-01-18T01:43:51.817Z,10.32
2023-01-18T01:46:53.979Z,10.45
2023-01-18T01:49:23.275Z,11.18
2023-01-18T01:51:57.936Z,13.32
2023-01-18T01:54:30.383Z,11.07
2023-01-18T01:57:06.198Z,12.80
2023-01-18T01:59:40.700Z,9.68
2023-01-18T02:02:07.628Z,13.52
2023-01-18T02:04:35.404Z,11.30
2023-01-18T02:07:02.286Z,10.98
2023-01-18T02:09:28.915Z,13.25
2023-01-18T02:11:55.814Z,11.57
2023-01-18T02:14:26.771Z,12.95
2023-01-18T02:17:15.733Z,12.93
2023-01-18T02:20:01.294Z,9.20
2023-01-18T02:22:44.919Z,11.32
2023-01-18T02:25:17.684Z,10.80
2023-01-18T02:28:06.543Z,9.48
2023-01-18T02:30:47.075Z,9.52
2023-01-18T02:33:23.397Z,13.52
2023-01-18T02:38:29.656Z,9.50
2023-01-18T02:41:45.913Z,9.75
2023-01-18T02:44:34.485Z,7.45
2023-01-18T02:47:01.928Z,13.88
2023-01-18T02:49:32.222Z,8.50
2023-01-18T02:52:03.927Z,8.93
2023-01-18T02:54:32.608Z,10.38
2023-01-18T02:57:02.459Z,9.07
2023-01-18T02:59:53.271Z,11.73
2023-01-18T03:02:24.578Z,11.10
2023-01-18T03:04:55.936Z,7.53
2023-01-18T03:07:54.872Z,7.95
2023-01-18T03:10:25.918Z,11.23
2023-01-18T03:13:11.064Z,12.40
2023-01-18T03:16:00.998Z,11.93
2023-01-18T03:19:02.435Z,9.63
2023-01-18T03:21:40.987Z,7.72
2023-01-18T03:24:09.828Z,9.90
2023-01-18T03:26:43.068Z,10.73
2023-01-18T03:29:30.901Z,11.93
2023-01-18T03:32:29.977Z,11.20
2023-01-18T03:35:09.791Z,9.10
2023-01-18T03:37:42.211Z,8.20
2023-01-18T03:40:28.796Z,9.48
2023-01-18T03:43:08.391Z,10.95
2023-01-18T03:45:42.728Z,10.98
2023-01-18T03:48:10.981Z,10.68
2023-01-18T03:50:54.339Z,13.35
2023-01-18T03:53:35.047Z,10.02
2023-01-18T03:56:09.239Z,9.80
2023-01-18T03:58:41.320Z,8.80
2023-01-18T04:01:08.029Z,10.77
2023-01-18T04:03:36.860Z,13.25
2023-01-18T04:06:07.068Z,12.32
2023-01-18T04:08:33.649Z,10.05
2023-01-18T04:11:00.235Z,12.27
2023-01-18T04:13:27.058Z,10.40
2023-01-18T04:15:53.709Z,8.55
2023-01-18T04:18:20.425Z,12.27
2023-01-18T04:20:47.133Z,14.02
2023-01-18T04:23:13.714Z,12.27
2023-01-18T04:25:40.915Z,12.05
2023-01-18T04:28:08.376Z,13.68
2023-01-18T04:30:34.916Z,12.35
2023-01-18T04:33:01.767Z,13.57
2023-01-18T04:35:29.409Z,13.10
2023-01-18T04:37:55.978Z,12.77
2023-01-18T04:40:22.556Z,11.20
2023-01-18T04:42:56.876Z,12.30
2023-01-18T04:45:23.712Z,13.98
2023-01-18T04:47:50.312Z,13.32
2023-01-18T04:50:17.194Z,17.60
2023-01-18T04:52:43.808Z,16.23
2023-01-18T04:55:11.747Z,12.90
2023-01-18T04:57:39.212Z,19.52
2023-01-18T05:00:08.758Z,15.70
2023-01-18T05:02:35.713Z,12.73
2023-01-18T05:05:05.065Z,13.75
2023-01-18T05:07:33.883Z,15.13
2023-01-18T05:10:03.963Z,16.10
2023-01-18T05:12:31.753Z,11.63
2023-01-18T05:14:58.361Z,15.60
2023-01-18T05:17:30.441Z,13.77
2023-01-18T05:19:57.224Z,14.60
2023-01-18T05:22:23.889Z,17.15
2023-01-18T05:24:50.448Z,18.95
2023-01-18T05:27:17.162Z,11.02
2023-01-18T05:29:44.202Z,12.98
2023-01-18T05:32:11.447Z,10.20
2023-01-18T05:34:38.181Z,14.82
2023-01-18T05:37:04.845Z,9.93
2023-01-18T05:39:31.780Z,13.88
2023-01-18T16:56:00.571Z,25.52
2023-01-18T16:58:28.867Z,27.90
2023-01-18T17:01:07.066Z,22.70
2023-01-18T17:03:36.029Z,21.15
2023-01-18T17:06:03.104Z,21.40
2023-01-18T17:08:30.566Z,26.45
2023-01-18T17:10:57.331Z,21.05
2023-01-18T17:13:24.382Z,22.33
2023-01-18T17:15:53.763Z,25.05
2023-01-18T17:18:24.099Z,25.50
2023-01-18T17:20:50.763Z,22.90
2023-01-18T17:23:17.832Z,23.63
2023-01-18T17:25:45.134Z,20.63
2023-01-18T17:28:17.789Z,23.23
2023-01-18T17:30:47.558Z,24.52
2023-01-18T17:33:19.777Z,24.67
2023-01-18T17:35:47.581Z,25.55
2023-01-18T17:38:23.211Z,23.38
2023-01-18T17:40:50.639Z,25.55
2023-01-18T17:43:28.497Z,23.05
2023-01-18T17:46:03.163Z,22.17
2023-01-18T17:48:30.557Z,23.70
2023-01-18T17:51:06.740Z,25.95
2023-01-18T17:53:34.334Z,31.67
2023-01-18T17:56:11.080Z,26.50
2023-01-18T17:58:41.036Z,28.83
2023-01-18T18:01:16.416Z,33.35
2023-01-18T18:03:48.578Z,29.17
2023-01-18T18:06:26.021Z,26.63
2023-01-18T18:08:57.972Z,23.27
2023-01-18T18:11:24.753Z,26.77
2023-01-18T18:13:51.411Z,22.38
2023-01-18T18:16:19.362Z,23.40
2023-01-18T18:18:46.145Z,25.35
2023-01-18T18:21:12.832Z,28.05
2023-01-18T18:23:42.589Z,26.92
2023-01-18T18:26:11.878Z,29.58
2023-01-18T18:28:38.450Z,27.08
2023-01-18T18:31:05.233Z,29.15
2023-01-18T18:33:33.777Z,28.38
2023-01-18T18:36:00.539Z,29.65
2023-01-18T18:38:28.183Z,30.08
2023-01-18T18:40:54.898Z,26.48
2023-01-18T18:43:21.709Z,33.70
2023-01-18T18:45:48.425Z,29.77
2023-01-18T18:48:15.001Z,27.95
2023-01-18T18:50:41.769Z,28.85
2023-01-18T18:53:08.590Z,28.70
2023-01-18T18:55:36.943Z,32.60
2023-01-18T18:58:14.093Z,31.02
2023-01-18T19:00:46.751Z,32.10
2023-01-18T19:03:13.837Z,32.05
2023-01-18T19:05:42.324Z,34.50
2023-01-18T19:08:09.657Z,30.35
2023-01-18T19:10:39.397Z,33.60
2023-01-18T19:13:08.695Z,33.45
2023-01-18T19:15:37.567Z,31.92
2023-01-18T19:18:07.143Z,31.60
2023-01-18T19:20:33.701Z,32.20
2023-01-18T19:23:04.024Z,31.00
2023-01-18T19:25:31.480Z,30.50
2023-01-18T19:28:00.675Z,31.00
2023-01-18T19:30:27.322Z,36.10
2023-01-18T19:32:54.004Z,35.55
2023-01-18T19:35:21.074Z,34.53
2023-01-18T19:37:48.924Z,31.63
2023-01-18T19:40:16.824Z,29.63
2023-01-18T19:42:44.538Z,30.73
2023-01-18T19:45:19.552Z,28.20
2023-01-18T19:47:52.782Z,35.55
2023-01-18T19:50:22.200Z,31.27
2023-01-18T19:52:48.957Z,32.83
2023-01-18T19:55:16.832Z,29.17
2023-01-18T19:57:43.616Z,26.35
2023-01-18T20:00:11.116Z,31.83
2023-01-18T20:02:40.628Z,27.63
2023-01-18T20:05:07.953Z,31.98
2023-01-18T20:07:34.629Z,28.80
2023-01-18T20:10:01.880Z,29.67
2023-01-18T20:12:31.353Z,29.52
2023-01-18T20:14:58.503Z,27.05
2023-01-18T20:17:26.050Z,23.08
2023-01-18T20:19:54.921Z,33.25
2023-01-18T20:22:26.975Z,29.63
2023-01-18T20:24:54.482Z,34.72
2023-01-18T20:27:21.097Z,32.33
2023-01-18T20:29:47.765Z,36.20
2023-01-18T20:32:17.404Z,33.70
2023-01-18T20:34:46.773Z,30.88
2023-01-18T20:37:14.367Z,29.20
2023-01-18T20:39:41.136Z,32.33
2023-01-18T20:42:08.828Z,33.20
2023-01-18T20:44:35.929Z,30.58
2023-01-18T20:47:02.599Z,23.92
2023-01-18T20:49:37.806Z,28.88
2023-01-18T20:52:06.813Z,29.20
2023-01-18T20:54:36.327Z,24.52
2023-01-18T20:57:05.128Z,26.15
2023-01-18T20:59:31.896Z,25.90
2023-01-18T21:01:58.776Z,25.08
2023-01-18T21:04:25.977Z,27.27
2023-01-18T21:06:52.761Z,26.05
2023-01-18T21:09:19.420Z,24.88
2023-01-18T21:11:45.998Z,26.10
2023-01-18T21:14:12.812Z,25.95
2023-01-18T21:16:39.659Z,25.23
2023-01-18T21:19:06.375Z,25.48
2023-01-18T21:21:33.126Z,21.90
2023-01-18T21:24:00.279Z,27.42
2023-01-18T21:26:27.057Z,28.35
2023-01-18T21:28:54.264Z,27.00
2023-01-18T21:31:21.748Z,24.95
2023-01-18T21:33:48.406Z,25.65
2023-01-18T21:36:17.742Z,29.13
2023-01-18T21:38:44.478Z,24.88
2023-01-18T21:41:30.288Z,26.75
2023-01-18T21:44:15.923Z,27.17
2023-01-18T21:46:51.034Z,25.30
2023-01-18T21:49:52.492Z,23.55
2023-01-18T21:52:41.977Z,25.13
2023-01-18T21:55:11.404Z,24.50
2023-01-18T21:57:38.860Z,25.75
2023-01-18T22:00:06.479Z,23.40
2023-01-18T22:02:33.938Z,21.35
2023-01-18T22:05:00.665Z,19.75
2023-01-18T22:07:29.971Z,24.98
2023-01-18T22:10:05.169Z,20.98
2023-01-18T22:12:35.080Z,25.02
2023-01-18T22:15:03.108Z,18.95
2023-01-18T22:17:29.911Z,20.92
2023-01-18T22:19:56.619Z,22.48
2023-01-18T22:22:23.282Z,18.83
2023-01-18T22:24:49.955Z,20.13
2023-01-18T22:27:16.537Z,23.95
2023-01-18T22:29:43.151Z,19.35
2023-01-18T22:32:09.875Z,18.48
2023-01-18T22:34:36.469Z,15.13
2023-01-18T22:37:03.579Z,17.63
2023-01-18T22:39:30.215Z,18.88
2023-01-18T22:41:56.872Z,18.58
2023-01-18T22:44:23.519Z,19.20
2023-01-18T22:46:50.179Z,15.43
2023-01-18T22:49:16.847Z,21.45
2023-01-18T22:51:43.631Z,17.00
2023-01-18T22:54:14.958Z,15.82
2023-01-18T22:56:41.526Z,19.05
2023-01-18T22:59:09.045Z,15.35
2023-01-18T23:01:36.304Z,18.58
2023-01-18T23:04:04.179Z,17.42
2023-01-18T23:06:50.931Z,15.65
2023-01-18T23:14:30.846Z,18.65
2023-01-18T23:17:16.092Z,20.80
2023-01-18T23:19:42.715Z,10.65
2023-01-18T23:22:09.363Z,11.65
2023-01-18T23:24:36.981Z,15.32
2023-01-18T23:27:05.371Z,15.13
2023-01-18T23:29:31.993Z,17.92
2023-01-18T23:31:58.856Z,15.27
2023-01-18T23:34:26.735Z,15.40
2023-01-18T23:36:53.784Z,16.08
2023-01-18T23:39:40.020Z,13.77
2023-01-18T23:42:24.790Z,10.18
2023-01-18T23:45:10.163Z,16.02
2023-01-18T23:47:55.559Z,14.70
2023-01-18T23:50:40.964Z,12.05
2023-01-18T23:53:31.198Z,18.00
2023-01-18T23:55:59.234Z,18.17
2023-01-18T23:58:26.029Z,19.25
